createdAt,value
2022-08-30T00:00:40.714Z,102102.28
2022-08-30T00:02:43.837Z,102103.13
2022-08-30T00:04:45.974Z,102111.78
2022-08-30T00:06:47.889Z,102105.69
2022-08-30T00:08:50.563Z,102093.50
2022-08-30T00:10:52.923Z,102090.00
2022-08-30T00:12:56.248Z,102083.06
2022-08-30T00:14:59.094Z,102087.34
2022-08-30T00:17:04.504Z,102089.06
2022-08-30T00:19:06.569Z,102080.41
2022-08-30T00:21:15.477Z,102079.56
2022-08-30T00:23:19.202Z,102072.56
2022-08-30T00:25:21.694Z,102071.69
2022-08-30T00:27:23.593Z,102079.44
2022-08-30T00:29:25.665Z,102076.81
2022-08-30T00:31:27.840Z,102079.41
2022-08-30T00:33:30.738Z,102070.75
2022-08-30T00:35:33.104Z,102074.16
2022-08-30T00:37:35.405Z,102070.69
2022-08-30T00:39:37.339Z,102073.22
2022-08-30T00:41:39.561Z,102077.56
2022-08-30T00:43:42.227Z,102078.38
2022-08-30T00:45:44.334Z,102078.19
2022-08-30T00:47:46.617Z,102082.63
2022-08-30T00:49:51.767Z,102086.09
2022-08-30T00:51:54.178Z,102087.88
2022-08-30T00:53:57.319Z,102083.38
2022-08-30T00:56:00.894Z,102083.34
2022-08-30T00:58:06.979Z,102083.34
2022-08-30T01:00:10.103Z,102076.41
2022-08-30T01:02:12.940Z,102084.97
2022-08-30T01:04:17.252Z,102075.44
2022-08-30T01:06:19.857Z,102083.25
2022-08-30T01:08:22.542Z,102088.44
2022-08-30T01:10:24.709Z,102088.47
2022-08-30T01:12:26.841Z,102088.47
2022-08-30T01:14:28.942Z,102090.16
2022-08-30T01:16:33.941Z,102085.81
2022-08-30T01:18:37.454Z,102091.00
2022-08-30T01:20:52.240Z,102081.44
2022-08-30T01:22:54.140Z,102085.69
2022-08-30T01:24:59.426Z,102086.59
2022-08-30T01:27:01.484Z,102083.09
2022-08-30T01:29:12.818Z,102083.97
2022-08-30T01:31:16.150Z,102085.69
2022-08-30T01:33:20.334Z,102076.09
2022-08-30T01:35:22.553Z,102079.56
2022-08-30T01:37:30.418Z,102083.03
2022-08-30T01:39:33.457Z,102078.66
2022-08-30T01:41:36.476Z,102074.31
2022-08-30T01:43:39.223Z,102075.16
2022-08-30T01:45:41.802Z,102072.63
2022-08-30T01:47:43.845Z,102081.25
2022-08-30T01:49:47.092Z,102086.41
2022-08-30T01:51:49.158Z,102086.44
2022-08-30T01:53:55.516Z,102093.38
2022-08-30T01:55:57.588Z,102091.66
2022-08-30T01:57:59.731Z,102085.53
2022-08-30T02:00:01.761Z,102090.81
2022-08-30T02:02:05.249Z,102093.34
2022-08-30T02:04:09.828Z,102096.78
2022-08-30T02:06:14.876Z,102092.41
2022-08-30T02:08:16.906Z,102093.31
2022-08-30T02:10:18.841Z,102097.59
2022-08-30T02:12:21.093Z,102094.16
2022-08-30T02:14:23.058Z,102097.59
2022-08-30T02:16:25.896Z,102094.09
2022-08-30T02:18:28.041Z,102091.56
2022-08-30T02:20:30.093Z,102088.97
2022-08-30T02:22:32.252Z,102089.84
2022-08-30T02:24:34.244Z,102083.81
2022-08-30T02:26:36.733Z,102082.00
2022-08-30T02:28:49.709Z,102082.03
2022-08-30T02:30:53.146Z,102082.00
2022-08-30T02:32:55.180Z,102085.56
2022-08-30T02:34:57.188Z,102082.09
2022-08-30T02:36:59.266Z,102083.81
2022-08-30T02:39:01.374Z,102085.56
2022-08-30T02:41:13.159Z,102084.63
2022-08-30T02:43:16.037Z,102089.06
2022-08-30T02:45:18.386Z,102089.94
2022-08-30T02:47:21.424Z,102076.06
2022-08-30T02:49:33.185Z,102076.06
2022-08-30T02:51:36.172Z,102078.66
2022-08-30T02:53:39.519Z,102080.41
2022-08-30T02:55:41.535Z,102073.44
2022-08-30T02:57:44.729Z,102071.72
2022-08-30T02:59:48.102Z,102076.03
2022-08-30T03:01:50.556Z,102077.75
2022-08-30T03:03:52.668Z,102079.53
2022-08-30T03:05:54.611Z,102083.91
2022-08-30T03:07:56.848Z,102078.63
2022-08-30T03:09:58.928Z,102070.75
2022-08-30T03:12:01.421Z,102060.28
2022-08-30T03:14:04.150Z,102063.72
2022-08-30T03:16:06.104Z,102062.88
2022-08-30T03:18:11.106Z,102068.09
2022-08-30T03:20:14.141Z,102061.00
2022-08-30T03:22:16.191Z,102059.38
2022-08-30T03:24:18.675Z,102056.78
2022-08-30T03:26:20.604Z,102061.88
2022-08-30T03:28:22.337Z,102057.47
2022-08-30T03:30:24.164Z,102058.34
2022-08-30T03:32:26.193Z,102056.59
2022-08-30T03:34:28.322Z,102060.88
2022-08-30T03:36:30.181Z,102059.97
2022-08-30T03:38:31.956Z,102054.75
2022-08-30T03:40:33.861Z,102058.22
2022-08-30T03:42:36.169Z,102056.47
2022-08-30T03:44:38.697Z,102049.44
2022-08-30T03:46:45.208Z,102047.69
2022-08-30T03:48:47.228Z,102046.00
2022-08-30T03:50:49.146Z,102047.72
2022-08-30T03:52:51.229Z,102045.09
2022-08-30T03:54:53.104Z,102042.44
2022-08-30T03:56:54.968Z,102037.22
2022-08-30T03:58:57.149Z,102041.44
2022-08-30T04:00:59.138Z,102044.06
2022-08-30T04:03:01.165Z,102041.44
2022-08-30T04:05:03.844Z,102040.53
2022-08-30T04:07:05.921Z,102034.44
2022-08-30T04:09:07.890Z,102031.84
2022-08-30T04:11:09.757Z,102031.00
2022-08-30T04:13:11.619Z,102028.31
2022-08-30T04:15:14.579Z,102029.28
2022-08-30T04:17:16.429Z,102037.06
2022-08-30T04:19:18.946Z,102031.78
2022-08-30T04:21:20.900Z,102030.16
2022-08-30T04:23:25.044Z,102035.28
2022-08-30T04:25:26.986Z,102032.72
2022-08-30T04:27:28.929Z,102030.84
2022-08-30T04:29:30.956Z,102036.09
2022-08-30T04:31:33.065Z,102026.59
2022-08-30T04:33:35.809Z,102028.31
2022-08-30T04:35:48.850Z,102036.06
2022-08-30T04:37:51.073Z,102028.28
2022-08-30T04:39:57.879Z,102035.97
2022-08-30T04:41:59.917Z,102029.13
2022-08-30T04:44:03.664Z,102041.31
2022-08-30T04:46:08.040Z,102034.34
2022-08-30T04:48:10.527Z,102035.19
2022-08-30T04:50:15.888Z,102034.38
2022-08-30T04:52:17.954Z,102026.53
2022-08-30T04:54:19.951Z,102026.53
2022-08-30T04:56:24.053Z,102026.59
2022-08-30T04:58:26.277Z,102031.00
2022-08-30T05:00:28.243Z,102029.19
2022-08-30T05:02:30.261Z,102023.94
2022-08-30T05:04:32.251Z,102029.19
2022-08-30T05:06:34.499Z,102030.94
2022-08-30T05:08:36.497Z,102035.28
2022-08-30T05:10:40.869Z,102037.88
2022-08-30T05:12:43.596Z,102045.66
2022-08-30T05:14:45.399Z,102045.75
2022-08-30T05:16:48.100Z,102045.75
2022-08-30T05:18:51.174Z,102044.91
2022-08-30T05:21:10.881Z,102041.41
2022-08-30T05:23:12.914Z,102044.91
2022-08-30T05:25:15.590Z,102049.22
2022-08-30T05:27:17.700Z,102044.91
2022-08-30T05:29:22.267Z,102045.88
2022-08-30T05:31:34.693Z,102044.09
2022-08-30T05:33:38.889Z,102045.81
2022-08-30T05:35:41.023Z,102031.09
2022-08-30T05:37:43.451Z,102039.75
2022-08-30T05:39:51.116Z,102041.56
2022-08-30T05:41:59.655Z,102034.56
2022-08-30T05:44:02.869Z,102042.44
2022-08-30T05:46:07.709Z,102043.28
2022-08-30T05:48:09.771Z,102048.50
2022-08-30T05:50:15.273Z,102057.19
2022-08-30T05:52:18.320Z,102052.88
2022-08-30T05:54:20.125Z,102057.25
2022-08-30T05:56:26.015Z,102048.53
2022-08-30T05:58:27.705Z,102054.72
2022-08-30T06:00:31.040Z,102051.28
2022-08-30T06:02:33.289Z,102049.59
2022-08-30T06:04:36.804Z,102046.97
2022-08-30T06:06:44.209Z,102048.72
2022-08-30T06:08:47.497Z,102047.00
2022-08-30T06:10:49.323Z,102050.53
2022-08-30T06:12:51.063Z,102046.25
2022-08-30T06:14:53.635Z,102054.94
2022-08-30T06:16:55.498Z,102050.66
2022-08-30T06:18:58.934Z,102052.38
2022-08-30T06:21:00.757Z,102055.94
2022-08-30T06:23:02.622Z,102054.19
2022-08-30T06:25:05.029Z,102054.19
2022-08-30T06:27:06.757Z,102048.13
2022-08-30T06:29:10.882Z,102047.31
2022-08-30T06:31:15.458Z,102052.56
2022-08-30T06:33:17.149Z,102046.50
2022-08-30T06:35:19.983Z,102046.41
2022-08-30T06:37:24.607Z,102049.13
2022-08-30T06:39:31.905Z,102048.28
2022-08-30T06:41:35.912Z,102041.38
2022-08-30T06:43:39.020Z,102046.56
2022-08-30T06:45:43.353Z,102053.63
2022-08-30T06:47:46.951Z,102049.28
2022-08-30T06:49:50.433Z,102051.88
2022-08-30T06:51:54.014Z,102056.25
2022-08-30T06:53:57.203Z,102057.13
2022-08-30T06:56:05.152Z,102058.91
2022-08-30T06:58:07.433Z,102060.59
2022-08-30T07:00:14.581Z,102061.47
2022-08-30T07:02:17.130Z,102057.19
2022-08-30T07:04:19.638Z,102058.94
2022-08-30T07:06:26.934Z,102061.59
2022-08-30T07:08:29.576Z,102064.25
2022-08-30T07:10:34.073Z,102061.69
2022-08-30T07:12:43.247Z,102056.50
2022-08-30T07:14:45.535Z,102060.94
2022-08-30T07:16:50.913Z,102064.44
2022-08-30T07:18:57.439Z,102064.41
2022-08-30T07:21:09.082Z,102062.72
2022-08-30T07:23:11.025Z,102061.91
2022-08-30T07:25:14.413Z,102062.78
2022-08-30T07:27:16.583Z,102074.09
2022-08-30T07:29:18.386Z,102068.09
2022-08-30T07:31:22.409Z,102082.03
2022-08-30T07:33:24.115Z,102071.63
2022-08-30T07:35:28.049Z,102069.00
2022-08-30T07:37:31.304Z,102072.47
2022-08-30T07:39:35.715Z,102069.94
2022-08-30T07:41:41.854Z,102074.28
2022-08-30T07:43:50.271Z,102068.22
2022-08-30T07:45:52.239Z,102078.72
2022-08-30T07:47:54.451Z,102077.78
2022-08-30T07:50:00.597Z,102072.69
2022-08-30T07:52:02.597Z,102077.03
2022-08-30T07:54:07.570Z,102086.59
2022-08-30T07:56:12.327Z,102076.22
2022-08-30T07:58:14.632Z,102074.53
2022-08-30T08:00:17.676Z,102078.03
2022-08-30T08:02:22.233Z,102077.25
2022-08-30T08:04:24.378Z,102077.25
2022-08-30T08:06:29.809Z,102080.72
2022-08-30T08:08:40.765Z,102077.31
2022-08-30T08:10:43.204Z,102076.47
2022-08-30T08:12:48.408Z,102086.94
2022-08-30T08:14:52.465Z,102086.06
2022-08-30T08:16:54.603Z,102089.59
2022-08-30T08:18:59.098Z,102086.16
2022-08-30T08:21:02.872Z,102093.16
2022-08-30T08:23:06.232Z,102096.63
2022-08-30T08:25:09.295Z,102094.81
2022-08-30T08:27:14.858Z,102098.38
2022-08-30T08:29:16.603Z,102093.22
2022-08-30T08:31:33.669Z,102087.16
2022-08-30T08:33:36.125Z,102088.09
2022-08-30T08:35:37.978Z,102088.13
2022-08-30T08:37:41.763Z,102089.00
2022-08-30T08:39:46.616Z,102086.47
2022-08-30T08:41:58.544Z,102091.72
2022-08-30T08:44:12.810Z,102090.88
2022-08-30T08:46:31.693Z,102092.63
2022-08-30T08:49:00.067Z,102085.72
2022-08-30T08:51:32.645Z,102082.25
2022-08-30T08:53:47.283Z,102080.56
2022-08-30T08:55:52.778Z,102084.94
2022-08-30T08:57:54.487Z,102090.19
2022-08-30T08:59:58.475Z,102092.81
2022-08-30T09:02:04.086Z,102092.00
2022-08-30T09:04:12.164Z,102079.84
2022-08-30T09:06:35.164Z,102090.28
2022-08-30T09:08:41.215Z,102088.66
2022-08-30T09:11:06.902Z,102085.16
2022-08-30T09:13:08.647Z,102081.72
2022-08-30T09:15:29.489Z,102093.03
2022-08-30T09:17:53.173Z,102082.59
2022-08-30T09:19:55.560Z,102090.44
2022-08-30T09:21:59.926Z,102086.09
2022-08-30T09:24:12.442Z,102093.09
2022-08-30T09:26:14.378Z,102079.16
2022-08-30T09:28:22.413Z,102087.91
2022-08-30T09:30:33.197Z,102088.75
2022-08-30T09:32:41.398Z,102087.03
2022-08-30T09:34:44.189Z,102094.00
2022-08-30T09:36:55.637Z,102087.91
2022-08-30T09:39:05.052Z,102091.44
2022-08-30T09:41:26.635Z,102100.13
2022-08-30T09:43:32.307Z,102093.13
2022-08-30T09:45:44.409Z,102090.53
2022-08-30T09:47:46.144Z,102087.00
2022-08-30T09:49:58.202Z,102081.75
2022-08-30T09:52:25.383Z,102099.19
2022-08-30T09:54:39.682Z,102094.84
2022-08-30T09:56:56.739Z,102089.53
2022-08-30T09:59:23.612Z,102091.31
2022-08-30T10:01:33.449Z,102094.78
2022-08-30T10:04:00.071Z,102081.66
2022-08-30T10:06:08.563Z,102099.09
2022-08-30T10:09:02.256Z,102082.50
2022-08-30T10:11:08.202Z,102083.44
2022-08-30T10:13:44.944Z,102090.31
2022-08-30T10:16:13.145Z,102087.66
2022-08-30T10:18:14.853Z,102082.41
2022-08-30T10:20:37.098Z,102093.72
2022-08-30T10:23:12.693Z,102091.06
2022-08-30T10:25:23.543Z,102086.69
2022-08-30T10:27:29.460Z,102083.19
2022-08-30T10:30:15.059Z,102077.00
2022-08-30T10:32:31.744Z,102078.69
2022-08-30T10:34:42.177Z,102074.28
2022-08-30T10:36:57.931Z,102080.34
2022-08-30T10:39:05.203Z,102081.97
2022-08-30T10:41:35.832Z,102087.13
2022-08-30T10:44:10.737Z,102075.59
2022-08-30T10:46:27.856Z,102069.31
2022-08-30T10:48:36.534Z,102073.63
2022-08-30T10:50:47.409Z,102072.63
2022-08-30T10:53:21.796Z,102073.50
2022-08-30T10:55:32.048Z,102074.38
2022-08-30T10:57:34.962Z,102062.22
2022-08-30T10:59:48.423Z,102069.09
2022-08-30T11:02:25.667Z,102067.28
2022-08-30T11:05:00.679Z,102058.31
2022-08-30T11:07:11.163Z,102060.88
2022-08-30T11:09:32.700Z,102059.94
2022-08-30T11:11:58.950Z,102056.97
2022-08-30T11:14:08.425Z,102055.06
2022-08-30T11:16:16.704Z,102050.56
2022-08-30T11:18:19.319Z,102056.53
2022-08-30T11:20:41.847Z,102057.94
2022-08-30T11:23:06.378Z,102054.41
2022-08-30T11:25:16.167Z,102049.81
2022-08-30T11:27:51.537Z,102061.81
2022-08-30T11:29:53.966Z,102057.09
2022-08-30T11:32:14.784Z,102058.66
2022-08-30T11:34:54.052Z,102063.84
2022-08-30T11:36:56.057Z,102062.19
2022-08-30T11:39:09.210Z,102056.91
2022-08-30T11:41:30.578Z,102057.78
2022-08-30T11:43:36.886Z,102056.09
2022-08-30T11:45:52.299Z,102059.66
2022-08-30T11:48:18.916Z,102048.28
2022-08-30T11:50:37.256Z,102043.94
2022-08-30T11:52:46.859Z,102054.53
2022-08-30T11:55:06.926Z,102046.16
2022-08-30T11:57:36.339Z,102046.91
2022-08-30T11:59:54.240Z,102046.97
2022-08-30T12:01:58.078Z,102046.06
2022-08-30T12:04:33.941Z,102043.44
2022-08-30T12:06:50.521Z,102036.28
2022-08-30T12:08:57.927Z,102040.59
2022-08-30T12:11:27.316Z,102035.13
2022-08-30T12:13:38.139Z,102039.41
2022-08-30T12:15:57.747Z,102042.00
2022-08-30T12:18:20.114Z,102045.59
2022-08-30T12:20:26.303Z,102034.00
2022-08-30T12:22:38.741Z,102039.19
2022-08-30T12:24:47.887Z,102037.34
2022-08-30T12:26:51.436Z,102037.31
2022-08-30T12:29:10.942Z,102039.91
2022-08-30T12:31:23.134Z,102047.75
2022-08-30T12:33:41.281Z,102037.34
2022-08-30T12:35:44.582Z,102041.78
2022-08-30T12:38:02.860Z,102034.91
2022-08-30T12:40:25.232Z,102033.00
2022-08-30T12:42:29.788Z,102036.34
2022-08-30T12:44:35.536Z,102036.13
2022-08-30T12:46:38.456Z,102043.00
2022-08-30T12:48:41.528Z,102044.72
2022-08-30T12:50:54.025Z,102044.56
2022-08-30T12:53:03.083Z,102045.50
2022-08-30T12:55:24.489Z,102045.59
2022-08-30T12:57:43.054Z,102033.34
2022-08-30T12:59:58.494Z,102035.19
2022-08-30T13:02:43.567Z,102029.38
2022-08-30T13:04:49.690Z,102033.22
2022-08-30T13:06:58.521Z,102035.94
2022-08-30T13:09:04.054Z,102041.34
2022-08-30T13:11:29.999Z,102038.88
2022-08-30T13:13:52.217Z,102033.78
2022-08-30T13:15:56.530Z,102034.69
2022-08-30T13:18:30.977Z,102042.81
2022-08-30T13:20:33.200Z,102048.00
2022-08-30T13:22:40.778Z,102034.09
2022-08-30T13:24:45.142Z,102036.78
2022-08-30T13:26:52.701Z,102035.00
2022-08-30T13:28:59.105Z,102034.94
2022-08-30T13:31:01.871Z,102029.59
2022-08-30T13:33:06.399Z,102028.72
2022-08-30T13:35:10.429Z,102027.63
2022-08-30T13:39:43.860Z,102022.72
2022-08-30T13:41:45.804Z,102035.50
2022-08-30T13:46:17.884Z,102029.56
2022-08-30T13:48:25.093Z,102027.75
2022-08-30T13:50:27.443Z,102026.97
2022-08-30T13:52:30.854Z,102032.28
2022-08-30T13:54:33.264Z,102028.00
2022-08-30T13:56:36.435Z,102022.94
2022-08-30T13:58:38.614Z,102021.25
2022-08-30T14:00:40.581Z,102024.91
2022-08-30T14:02:46.322Z,102028.16
2022-08-30T14:04:57.697Z,102014.59
2022-08-30T14:07:14.038Z,102013.97
2022-08-30T14:09:23.342Z,102012.63
2022-08-30T14:11:28.488Z,102015.63
2022-08-30T14:13:30.488Z,102011.22
2022-08-30T14:15:44.117Z,102010.47
2022-08-30T14:17:48.092Z,102016.53
2022-08-30T14:19:50.096Z,102020.13
2022-08-30T14:21:52.377Z,102023.59
2022-08-30T14:23:58.033Z,102020.53
2022-08-30T14:26:01.988Z,102026.91
2022-08-30T14:28:04.766Z,102020.03
2022-08-30T14:30:21.175Z,102017.59
2022-08-30T14:32:23.784Z,102012.72
2022-08-30T14:34:26.614Z,102018.00
2022-08-30T14:36:32.966Z,102020.81
2022-08-30T14:38:36.353Z,102018.25
2022-08-30T14:40:39.203Z,102005.19
2022-08-30T14:42:43.943Z,102002.66
2022-08-30T14:44:56.330Z,102006.19
2022-08-30T14:47:03.263Z,102001.81
2022-08-30T14:49:05.859Z,102008.00
2022-08-30T14:51:27.413Z,102010.63
2022-08-30T14:53:30.609Z,101998.56
2022-08-30T14:55:38.070Z,101994.25
2022-08-30T14:57:42.273Z,102000.09
2022-08-30T14:59:45.423Z,101999.25
2022-08-30T15:01:48.600Z,102002.72
2022-08-30T15:03:52.097Z,102006.97
2022-08-30T15:05:54.701Z,102003.56
2022-08-30T15:08:00.093Z,102005.28
2022-08-30T15:10:03.124Z,102001.59
2022-08-30T15:12:05.628Z,101998.13
2022-08-30T15:14:15.842Z,102002.53
2022-08-30T15:16:31.120Z,101992.88
2022-08-30T15:18:34.080Z,101996.25
2022-08-30T15:20:38.675Z,101989.00
2022-08-30T15:22:41.427Z,101994.00
2022-08-30T15:24:49.009Z,101987.47
2022-08-30T15:26:55.663Z,101983.72
2022-08-30T15:28:57.794Z,101984.50
2022-08-30T15:30:59.560Z,101982.44
2022-08-30T15:33:04.522Z,101974.16
2022-08-30T15:35:08.299Z,101977.88
2022-08-30T15:37:10.134Z,101970.28
2022-08-30T15:39:14.530Z,101958.38
2022-08-30T15:41:16.295Z,101968.47
2022-08-30T15:43:20.056Z,101966.31
2022-08-30T15:45:23.003Z,101957.84
2022-08-30T15:47:25.078Z,101959.13
2022-08-30T15:49:27.975Z,101956.19
2022-08-30T15:51:41.701Z,101959.13
2022-08-30T15:53:45.749Z,101958.97
2022-08-30T15:55:48.424Z,101957.59
2022-08-30T15:57:54.382Z,101956.13
2022-08-30T15:59:56.367Z,101944.84
2022-08-30T16:01:59.661Z,101947.28
2022-08-30T16:04:02.112Z,101946.25
2022-08-30T16:06:04.026Z,101949.50
2022-08-30T16:08:09.297Z,101947.63
2022-08-30T16:10:15.379Z,101951.94
2022-08-30T16:12:23.396Z,101936.44
2022-08-30T16:14:29.253Z,101937.84
2022-08-30T16:16:35.696Z,101935.38
2022-08-30T16:18:40.681Z,101934.81
2022-08-30T16:20:45.473Z,101929.81
2022-08-30T16:22:47.947Z,101944.00
2022-08-30T16:24:49.851Z,101940.44
2022-08-30T16:26:54.134Z,101934.91
2022-08-30T16:28:59.071Z,101934.97
2022-08-30T16:31:02.999Z,101930.38
2022-08-30T16:33:07.298Z,101930.19
2022-08-30T16:35:14.771Z,101936.19
2022-08-30T16:37:16.626Z,101936.19
2022-08-30T16:39:19.810Z,101938.06
2022-08-30T16:41:23.899Z,101933.78
2022-08-30T16:43:25.625Z,101929.22
2022-08-30T16:45:34.271Z,101938.13
2022-08-30T16:47:38.561Z,101931.91
2022-08-30T16:49:40.501Z,101931.41
2022-08-30T16:51:45.737Z,101934.13
2022-08-30T16:53:49.632Z,101930.25
2022-08-30T16:55:52.698Z,101936.38
2022-08-30T16:57:56.369Z,101934.72
2022-08-30T17:00:02.233Z,101934.00
2022-08-30T17:02:06.045Z,101933.31
2022-08-30T17:04:09.509Z,101938.16
2022-08-30T17:06:13.486Z,101938.50
2022-08-30T17:08:15.395Z,101936.41
2022-08-30T17:10:22.967Z,101933.13
2022-08-30T17:12:26.579Z,101938.53
2022-08-30T17:14:29.168Z,101925.69
2022-08-30T17:16:33.100Z,101931.16
2022-08-30T17:18:38.125Z,101932.22
2022-08-30T17:20:39.866Z,101941.19
2022-08-30T17:22:51.427Z,101946.66
2022-08-30T17:24:56.759Z,101951.16
2022-08-30T17:26:59.000Z,101947.81
2022-08-30T17:29:03.896Z,101952.41
2022-08-30T17:31:08.594Z,101961.47
2022-08-30T17:33:11.713Z,101965.19
2022-08-30T17:35:15.668Z,101965.31
2022-08-30T17:37:21.311Z,101965.59
2022-08-30T17:39:25.322Z,101978.81
2022-08-30T17:41:37.781Z,101965.75
2022-08-30T17:43:48.108Z,101971.25
2022-08-30T17:45:50.369Z,101968.72
2022-08-30T17:48:00.431Z,101967.13
2022-08-30T17:50:06.838Z,101969.97
2022-08-30T17:52:11.662Z,101964.88
2022-08-30T17:54:21.362Z,101974.66
2022-08-30T17:56:35.241Z,101966.91
2022-08-30T17:58:38.160Z,101967.97
2022-08-30T18:00:42.390Z,101976.78
2022-08-30T18:02:47.676Z,101974.28
2022-08-30T18:04:50.327Z,101979.59
2022-08-30T18:06:53.297Z,101979.00
2022-08-30T18:09:15.168Z,101981.66
2022-08-30T18:11:16.944Z,101985.22
2022-08-30T18:13:22.415Z,101985.31
2022-08-30T18:15:28.751Z,101993.25
2022-08-30T18:17:31.363Z,101995.16
2022-08-30T18:19:46.272Z,101999.47
2022-08-30T18:21:52.068Z,102007.41
2022-08-30T18:23:54.030Z,102010.94
2022-08-30T18:26:06.016Z,102018.06
2022-08-30T18:28:19.871Z,102022.47
2022-08-30T18:30:23.830Z,102014.66
2022-08-30T18:32:31.348Z,102018.19
2022-08-30T18:34:42.416Z,102025.34
2022-08-30T18:36:47.372Z,102026.22
2022-08-30T18:38:51.201Z,102032.34
2022-08-30T18:41:11.146Z,102027.97
2022-08-30T18:43:21.203Z,102036.75
2022-08-30T18:45:27.012Z,102033.28
2022-08-30T18:47:33.140Z,102051.66
2022-08-30T18:49:40.791Z,102044.69
2022-08-30T18:51:42.514Z,102043.84
2022-08-30T18:54:00.630Z,102048.31
2022-08-30T18:56:03.327Z,102059.69
2022-08-30T18:58:05.816Z,102053.72
2022-08-30T19:00:16.962Z,102054.66
2022-08-30T19:02:27.747Z,102055.53
2022-08-30T19:04:35.065Z,102057.38
2022-08-30T19:06:50.849Z,102060.09
2022-08-30T19:08:57.910Z,102061.81
2022-08-30T19:11:04.972Z,102072.34
2022-08-30T19:13:15.463Z,102075.84
2022-08-30T19:15:26.311Z,102077.63
2022-08-30T19:17:28.370Z,102075.06
2022-08-30T19:19:35.241Z,102082.03
2022-08-30T19:21:41.324Z,102082.88
2022-08-30T19:23:43.329Z,102079.41
2022-08-30T19:25:55.562Z,102084.69
2022-08-30T19:28:05.607Z,102085.53
2022-08-30T19:30:12.225Z,102080.34
2022-08-30T19:32:15.389Z,102078.72
2022-08-30T19:34:19.349Z,102083.97
2022-08-30T19:36:24.618Z,102088.31
2022-08-30T19:38:29.130Z,102101.41
2022-08-30T19:40:33.168Z,102109.34
2022-08-30T19:42:39.468Z,102112.84
2022-08-30T19:44:48.893Z,102111.97
2022-08-30T19:46:56.441Z,102116.31
2022-08-30T19:48:58.609Z,102111.97
2022-08-30T19:51:08.790Z,102116.34
2022-08-30T19:53:27.588Z,102116.34
2022-08-30T19:55:31.502Z,102111.09
2022-08-30T19:57:34.243Z,102116.38
2022-08-30T19:59:40.403Z,102122.47
2022-08-30T20:01:45.790Z,102125.97
2022-08-30T20:03:49.525Z,102126.06
2022-08-30T20:05:54.438Z,102132.16
2022-08-30T20:08:00.885Z,102134.78
2022-08-30T20:10:09.394Z,102134.81
2022-08-30T20:12:14.621Z,102128.69
2022-08-30T20:14:21.397Z,102135.69
2022-08-30T20:18:57.372Z,102142.69
2022-08-30T20:21:02.818Z,102141.84
2022-08-30T20:23:06.213Z,102140.06
2022-08-30T20:25:33.757Z,102144.47
2022-08-30T20:27:39.758Z,102141.84
2022-08-30T20:29:42.342Z,102140.09
2022-08-30T20:31:54.278Z,102140.09
2022-08-30T20:33:56.610Z,102139.25
2022-08-30T20:36:02.659Z,102139.25
2022-08-30T20:38:13.825Z,102144.50
2022-08-30T20:40:18.465Z,102141.00
2022-08-30T20:42:20.677Z,102139.28
2022-08-30T20:44:27.187Z,102145.41
2022-08-30T20:46:38.804Z,102149.81
2022-08-30T20:48:41.908Z,102152.44
2022-08-30T20:50:45.900Z,102158.53
2022-08-30T20:52:50.737Z,102153.31
2022-08-30T20:54:54.569Z,102162.06
2022-08-30T20:56:57.748Z,102156.81
2022-08-30T20:59:04.994Z,102158.56
2022-08-30T21:01:09.831Z,102156.81
2022-08-30T21:03:25.857Z,102162.91
2022-08-30T21:05:29.760Z,102168.16
2022-08-30T21:07:31.677Z,102164.69
2022-08-30T21:09:39.982Z,102162.06
2022-08-30T21:11:53.150Z,102169.06
2022-08-30T21:13:55.216Z,102169.94
2022-08-30T21:16:00.602Z,102165.56
2022-08-30T21:18:18.062Z,102174.31
2022-08-30T21:20:20.662Z,102163.84
2022-08-30T21:22:26.576Z,102165.56
2022-08-30T21:24:48.130Z,102167.31
2022-08-30T21:26:54.130Z,102172.56
2022-08-30T21:28:56.080Z,102166.44
2022-08-30T21:31:26.884Z,102156.81
2022-08-30T21:33:28.926Z,102162.09
2022-08-30T21:35:49.541Z,102162.06
2022-08-30T21:37:58.147Z,102158.59
2022-08-30T21:40:02.320Z,102163.84
2022-08-30T21:42:04.636Z,102162.94
2022-08-30T21:44:16.978Z,102165.56
2022-08-30T21:46:24.396Z,102164.72
2022-08-30T21:48:26.464Z,102163.81
2022-08-30T21:50:38.384Z,102164.69
2022-08-30T21:52:44.059Z,102168.19
2022-08-30T21:54:46.158Z,102164.69
2022-08-30T21:56:57.142Z,102171.66
2022-08-30T21:59:00.728Z,102170.75
2022-08-30T22:01:21.268Z,102173.41
2022-08-30T22:03:23.056Z,102171.66
2022-08-30T22:05:27.320Z,102176.00
2022-08-30T22:07:30.026Z,102169.88
2022-08-30T22:10:00.591Z,102176.00
2022-08-30T22:12:06.982Z,102183.84
2022-08-30T22:14:22.960Z,102186.41
2022-08-30T22:16:25.301Z,102185.53
2022-08-30T22:18:28.760Z,102187.28
2022-08-30T22:20:43.323Z,102191.63
2022-08-30T22:22:46.336Z,102195.97
2022-08-30T22:24:51.873Z,102193.34
2022-08-30T22:26:56.408Z,102191.63
2022-08-30T22:28:58.259Z,102196.84
2022-08-30T22:31:04.433Z,102200.28
2022-08-30T22:33:07.287Z,102198.59
2022-08-30T22:35:09.600Z,102195.09
2022-08-30T22:37:15.207Z,102203.78
2022-08-30T22:39:18.515Z,102199.47
2022-08-30T22:41:25.524Z,102204.69
2022-08-30T22:43:38.711Z,102205.56
2022-08-30T22:45:45.383Z,102202.91
2022-08-30T22:47:47.783Z,102210.75
2022-08-30T22:49:53.976Z,102215.94
2022-08-30T22:51:58.137Z,102216.81
2022-08-30T22:54:01.332Z,102217.69
2022-08-30T22:56:19.585Z,102214.19
2022-08-30T22:58:22.291Z,102218.56
2022-08-30T23:00:24.503Z,102222.91
2022-08-30T23:02:27.648Z,102218.56
2022-08-30T23:04:35.782Z,102222.03
2022-08-30T23:06:40.469Z,102217.69
2022-08-30T23:08:45.614Z,102228.97
2022-08-30T23:10:52.589Z,102221.88
2022-08-30T23:12:55.868Z,102229.78
2022-08-30T23:15:02.157Z,102233.25
2022-08-30T23:17:07.412Z,102227.06
2022-08-30T23:19:11.226Z,102224.53
2022-08-30T23:21:29.491Z,102234.94
2022-08-30T23:23:53.028Z,102227.97
2022-08-30T23:26:23.596Z,102234.03
2022-08-30T23:28:43.850Z,102232.28
2022-08-30T23:31:05.979Z,102241.81
2022-08-30T23:33:29.526Z,102233.09
2022-08-30T23:35:51.441Z,102233.09
2022-08-30T23:38:11.931Z,102242.69
2022-08-30T23:40:33.345Z,102238.28
2022-08-30T23:45:37.039Z,102238.28
2022-08-30T23:47:57.418Z,102240.00
2022-08-30T23:50:20.651Z,102238.19
2022-08-30T23:52:44.918Z,102232.94
2022-08-30T23:55:12.046Z,102228.59
2022-08-30T23:57:32.501Z,102232.94
2022-08-30T23:59:54.131Z,102231.16
